Decoded METAR's for Mozambique

 
 
Print Page

Back to Weather Page

 
 

Beira - Mozambique, FQBR

ADDS - TAFS form results

Aviation Digital Data Service (ADDS)

Output produced by TAFs form (0735 UTC 24 November 2017)
found at http://aviationweather.gov/adds/tafs/
 
METAR text: FQBR 240700Z 05007KT 9999 SCT018 28/22 Q1015
Conditions at: FQBR (BEIRA , MZ) observed 0700 UTC 24 November 2017
Temperature: 28.0°C (82°F)
Dewpoint: 22.0°C (72°F) [RH = 70%]
Pressure (altimeter): 29.97 inches Hg (1015.0 mb)
Winds: from the NE (50 degrees) at 8 MPH (7 knots; 3.6 m/s)
Visibility: 6 or more miles (10+ km)
Ceiling: at least 12,000 feet AGL
Clouds: scattered clouds at 1800 feet AGL
Weather: no significant weather observed at this time

Array
Chimoio - Mozambique, FQCH

ADDS - TAFS form results

Aviation Digital Data Service (ADDS)

Output produced by TAFs form (0735 UTC 24 November 2017)
found at http://aviationweather.gov/adds/tafs/
 
METAR text: FQCH 240700Z 16010KT 9999 SCT010 BKN015 23/20 Q1020
Conditions at: FQCH (CHIMOIO , MZ) observed 0700 UTC 24 November 2017
Temperature: 23.0°C (73°F)
Dewpoint: 20.0°C (68°F) [RH = 83%]
Pressure (altimeter): 30.12 inches Hg (1020.0 mb)
Winds: from the SSE (160 degrees) at 12 MPH (10 knots; 5.2 m/s)
Visibility: 6 or more miles (10+ km)
Ceiling: 1500 feet AGL
Clouds: scattered clouds at 1000 feet AGL
broken clouds at 1500 feet AGL
Weather: no significant weather observed at this time

Array
Inhambane - Mozambique, FQIN

ADDS - TAFS form results

Aviation Digital Data Service (ADDS)

Output produced by TAFs form (0735 UTC 24 November 2017)
found at http://aviationweather.gov/adds/tafs/
 
METAR text: FQIN 240700Z 00000KT 9999 BKN020 29/22 Q1017
Conditions at: FQIN (INHAMBANE , MZ) observed 0700 UTC 24 November 2017
Temperature: 29.0°C (84°F)
Dewpoint: 22.0°C (72°F) [RH = 66%]
Pressure (altimeter): 30.03 inches Hg (1017.0 mb)
Winds: calm
Visibility: 6 or more miles (10+ km)
Ceiling: 2000 feet AGL
Clouds: broken clouds at 2000 feet AGL
Weather: no significant weather observed at this time

Array
Lichinga - Mozambique, FQLC

ADDS - TAFS form results

Aviation Digital Data Service (ADDS)

Output produced by TAFs form (0735 UTC 24 November 2017)
found at http://aviationweather.gov/adds/tafs/
 
METAR text: FQLC 240700Z 06013KT 9999 SCT009 BKN015 FEW020CB 23/17 Q1012 RMK CB TO E/W
Conditions at: FQLC (LICHINGA , MZ) observed 0700 UTC 24 November 2017
Temperature: 23.0°C (73°F)
Dewpoint: 17.0°C (63°F) [RH = 69%]
Pressure (altimeter): 29.88 inches Hg (1012.0 mb)
Winds: from the ENE (60 degrees) at 15 MPH (13 knots; 6.8 m/s)
Visibility: 6 or more miles (10+ km)
Ceiling: 1500 feet AGL
Clouds: scattered clouds at 900 feet AGL
broken clouds at 1500 feet AGL
few clouds at 2000 feet AGL
Weather: no significant weather observed at this time

Array
Maputo - Mozambique, FQMA

ADDS - TAFS form results

Aviation Digital Data Service (ADDS)

Output produced by TAFs form (0735 UTC 24 November 2017)
found at http://aviationweather.gov/adds/tafs/
 
METAR text: FQMA 240700Z 24010KT 9999 BKN020 22/18 Q1018 NOSIG
Conditions at: FQMA (MAPUTO/MAVALANE , MZ) observed 0700 UTC 24 November 2017
Temperature: 22.0°C (72°F)
Dewpoint: 18.0°C (64°F) [RH = 78%]
Pressure (altimeter): 30.06 inches Hg (1018.0 mb)
Winds: from the WSW (240 degrees) at 12 MPH (10 knots; 5.2 m/s)
Visibility: 6 or more miles (10+ km)
Ceiling: 2000 feet AGL
Clouds: broken clouds at 2000 feet AGL
Weather: no significant weather observed at this time

Array
Nampula - Mozambique, FQNP

ADDS - TAFS form results

Aviation Digital Data Service (ADDS)

Output produced by TAFs form (0735 UTC 24 November 2017)
found at http://aviationweather.gov/adds/tafs/
 
METAR text: FQNP 240700Z 04004KT 9999 BKN020 28/21 Q1016
Conditions at: FQNP (NAMPULA , MZ) observed 0700 UTC 24 November 2017
Temperature: 28.0°C (82°F)
Dewpoint: 21.0°C (70°F) [RH = 66%]
Pressure (altimeter): 30.00 inches Hg (1016.0 mb)
Winds: from the NE (40 degrees) at 5 MPH (4 knots; 2.1 m/s)
Visibility: 6 or more miles (10+ km)
Ceiling: 2000 feet AGL
Clouds: broken clouds at 2000 feet AGL
Weather: no significant weather observed at this time

Array
Pemba - Mozambique, FQPB

ADDS - TAFS form results

Aviation Digital Data Service (ADDS)

Output produced by TAFs form (0735 UTC 24 November 2017)
found at http://aviationweather.gov/adds/tafs/
 
METAR text: FQPB 240700Z 05004KT 010V090 9999 SCT020 29/23 Q1014
Conditions at: FQPB (PEMBA , MZ) observed 0700 UTC 24 November 2017
Temperature: 29.0°C (84°F)
Dewpoint: 23.0°C (73°F) [RH = 70%]
Pressure (altimeter): 29.94 inches Hg (1014.0 mb)
Winds: from the NE (50 degrees) at 5 MPH (4 knots; 2.1 m/s)
Visibility: 6 or more miles (10+ km)
Ceiling: at least 12,000 feet AGL
Clouds: scattered clouds at 2000 feet AGL
Weather: no significant weather observed at this time

Array
Quelimane - Mozambique, FQQL

ADDS - TAFS form results

Aviation Digital Data Service (ADDS)

Output produced by TAFs form (0735 UTC 24 November 2017)
found at http://aviationweather.gov/adds/tafs/
 
METAR text: FQQL 240700Z 17005KT 9999 SCT020 30/22 Q1015
Conditions at: FQQL (QUELIMANE , MZ) observed 0700 UTC 24 November 2017
Temperature: 30.0°C (86°F)
Dewpoint: 22.0°C (72°F) [RH = 62%]
Pressure (altimeter): 29.97 inches Hg (1015.0 mb)
Winds: from the S (170 degrees) at 6 MPH (5 knots; 2.6 m/s)
Visibility: 6 or more miles (10+ km)
Ceiling: at least 12,000 feet AGL
Clouds: scattered clouds at 2000 feet AGL
Weather: no significant weather observed at this time

Array
Tete - Mozambique, FQTT

ADDS - TAFS form results

Aviation Digital Data Service (ADDS)

Output produced by TAFs form (0735 UTC 24 November 2017)
found at http://aviationweather.gov/adds/tafs/
 
METAR text: FQTT 240700Z 12010KT 9999 BKN020 SCT100 30/21 Q1015
Conditions at: FQTT (TETE/CHINGOZI , MZ) observed 0700 UTC 24 November 2017
Temperature: 30.0°C (86°F)
Dewpoint: 21.0°C (70°F) [RH = 59%]
Pressure (altimeter): 29.97 inches Hg (1015.0 mb)
Winds: from the ESE (120 degrees) at 12 MPH (10 knots; 5.2 m/s)
Visibility: 6 or more miles (10+ km)
Ceiling: 2000 feet AGL
Clouds: broken clouds at 2000 feet AGL
scattered clouds at 10000 feet AGL
Weather: no significant weather observed at this time

Array
Vilanculos - Mozambique, FQVL

ADDS - TAFS form results

Aviation Digital Data Service (ADDS)

Output produced by TAFs form (0735 UTC 24 November 2017)
found at http://aviationweather.gov/adds/tafs/
 
METAR text: FQVL 240700Z 16007KT 130V210 9999 SCT020 28/21 Q1016
Conditions at: FQVL (VILANCULOS , MZ) observed 0700 UTC 24 November 2017
Temperature: 28.0°C (82°F)
Dewpoint: 21.0°C (70°F) [RH = 66%]
Pressure (altimeter): 30.00 inches Hg (1016.0 mb)
Winds: from the SSE (160 degrees) at 8 MPH (7 knots; 3.6 m/s)
Visibility: 6 or more miles (10+ km)
Ceiling: at least 12,000 feet AGL
Clouds: scattered clouds at 2000 feet AGL
Weather: no significant weather observed at this time

Array